sensor_id;sensor_type;location;lat;lon;timestamp;P1;durP1;ratioP1;P2;durP2;ratioP2
58954;SDS011;45815;52.334;5.024;2023-07-28T00:02:05;13.68;;;6.35;;
58954;SDS011;45815;52.334;5.024;2023-07-28T00:04:31;15.27;;;6.47;;
58954;SDS011;45815;52.334;5.024;2023-07-28T00:06:56;12.85;;;6.82;;
58954;SDS011;45815;52.334;5.024;2023-07-28T00:09:22;17.17;;;6.60;;
58954;SDS011;45815;52.334;5.024;2023-07-28T00:11:51;12.38;;;6.20;;
58954;SDS011;45815;52.334;5.024;2023-07-28T00:14:16;12.57;;;6.18;;
58954;SDS011;45815;52.334;5.024;2023-07-28T00:16:42;16.08;;;7.13;;
58954;SDS011;45815;52.334;5.024;2023-07-28T00:19:07;13.05;;;6.05;;
58954;SDS011;45815;52.334;5.024;2023-07-28T00:21:33;15.55;;;7.35;;
58954;SDS011;45815;52.334;5.024;2023-07-28T00:23:58;15.48;;;6.80;;
58954;SDS011;45815;52.334;5.024;2023-07-28T00:26:23;19.30;;;7.63;;
58954;SDS011;45815;52.334;5.024;2023-07-28T00:28:49;14.48;;;7.40;;
58954;SDS011;45815;52.334;5.024;2023-07-28T00:31:14;13.75;;;6.35;;
58954;SDS011;45815;52.334;5.024;2023-07-28T00:33:40;16.00;;;7.40;;
58954;SDS011;45815;52.334;5.024;2023-07-28T00:36:05;17.52;;;7.13;;
58954;SDS011;45815;52.334;5.024;2023-07-28T00:38:31;13.82;;;7.13;;
58954;SDS011;45815;52.334;5.024;2023-07-28T00:40:57;19.30;;;7.45;;
58954;SDS011;45815;52.334;5.024;2023-07-28T00:43:24;19.30;;;7.93;;
58954;SDS011;45815;52.334;5.024;2023-07-28T00:45:49;25.50;;;8.18;;
58954;SDS011;45815;52.334;5.024;2023-07-28T00:48:16;20.13;;;7.95;;
58954;SDS011;45815;52.334;5.024;2023-07-28T00:50:44;14.25;;;7.50;;
58954;SDS011;45815;52.334;5.024;2023-07-28T00:53:11;15.57;;;8.13;;
58954;SDS011;45815;52.334;5.024;2023-07-28T00:55:37;17.17;;;7.45;;
58954;SDS011;45815;52.334;5.024;2023-07-28T00:58:03;15.23;;;8.32;;
58954;SDS011;45815;52.334;5.024;2023-07-28T01:00:29;15.27;;;7.75;;
58954;SDS011;45815;52.334;5.024;2023-07-28T01:02:55;18.90;;;8.02;;
58954;SDS011;45815;52.334;5.024;2023-07-28T01:05:24;23.40;;;8.63;;
58954;SDS011;45815;52.334;5.024;2023-07-28T01:07:54;16.45;;;7.68;;
58954;SDS011;45815;52.334;5.024;2023-07-28T01:10:30;20.10;;;7.10;;
58954;SDS011;45815;52.334;5.024;2023-07-28T01:12:57;17.15;;;7.50;;
58954;SDS011;45815;52.334;5.024;2023-07-28T01:15:23;14.80;;;7.25;;
58954;SDS011;45815;52.334;5.024;2023-07-28T01:17:49;19.05;;;7.55;;
58954;SDS011;45815;52.334;5.024;2023-07-28T01:20:15;19.30;;;7.40;;
58954;SDS011;45815;52.334;5.024;2023-07-28T01:22:46;17.60;;;7.22;;
58954;SDS011;45815;52.334;5.024;2023-07-28T01:27:53;15.50;;;7.20;;
58954;SDS011;45815;52.334;5.024;2023-07-28T01:30:21;18.80;;;7.05;;
58954;SDS011;45815;52.334;5.024;2023-07-28T01:32:50;14.45;;;6.40;;
58954;SDS011;45815;52.334;5.024;2023-07-28T01:35:16;17.42;;;7.65;;
58954;SDS011;45815;52.334;5.024;2023-07-28T01:37:41;21.98;;;7.35;;
58954;SDS011;45815;52.334;5.024;2023-07-28T01:40:07;17.42;;;7.00;;
58954;SDS011;45815;52.334;5.024;2023-07-28T01:42:33;17.02;;;7.63;;
58954;SDS011;45815;52.334;5.024;2023-07-28T01:44:58;17.08;;;6.70;;
58954;SDS011;45815;52.334;5.024;2023-07-28T01:47:24;12.50;;;6.75;;
58954;SDS011;45815;52.334;5.024;2023-07-28T01:49:50;14.55;;;6.70;;
58954;SDS011;45815;52.334;5.024;2023-07-28T01:52:16;17.77;;;7.03;;
58954;SDS011;45815;52.334;5.024;2023-07-28T01:54:41;19.15;;;8.43;;
58954;SDS011;45815;52.334;5.024;2023-07-28T01:57:06;16.83;;;7.78;;
58954;SDS011;45815;52.334;5.024;2023-07-28T01:59:32;17.50;;;8.00;;
58954;SDS011;45815;52.334;5.024;2023-07-28T02:01:57;15.82;;;7.72;;
58954;SDS011;45815;52.334;5.024;2023-07-28T02:04:23;20.98;;;8.57;;
58954;SDS011;45815;52.334;5.024;2023-07-28T02:06:48;17.58;;;7.80;;
58954;SDS011;45815;52.334;5.024;2023-07-28T02:09:14;14.98;;;7.28;;
58954;SDS011;45815;52.334;5.024;2023-07-28T02:11:39;18.00;;;8.30;;
58954;SDS011;45815;52.334;5.024;2023-07-28T02:14:05;18.27;;;7.97;;
58954;SDS011;45815;52.334;5.024;2023-07-28T02:16:30;21.00;;;8.95;;
58954;SDS011;45815;52.334;5.024;2023-07-28T02:18:57;18.42;;;8.00;;
58954;SDS011;45815;52.334;5.024;2023-07-28T02:21:22;19.70;;;8.70;;
58954;SDS011;45815;52.334;5.024;2023-07-28T02:23:48;20.17;;;7.65;;
58954;SDS011;45815;52.334;5.024;2023-07-28T02:26:14;16.85;;;7.22;;
58954;SDS011;45815;52.334;5.024;2023-07-28T02:28:39;19.40;;;8.18;;
58954;SDS011;45815;52.334;5.024;2023-07-28T02:31:05;19.98;;;7.80;;
58954;SDS011;45815;52.334;5.024;2023-07-28T02:33:30;18.40;;;8.20;;
58954;SDS011;45815;52.334;5.024;2023-07-28T02:35:57;16.90;;;7.40;;
58954;SDS011;45815;52.334;5.024;2023-07-28T02:38:23;19.02;;;7.03;;
58954;SDS011;45815;52.334;5.024;2023-07-28T02:40:48;18.15;;;8.13;;
58954;SDS011;45815;52.334;5.024;2023-07-28T02:43:13;16.00;;;7.43;;
58954;SDS011;45815;52.334;5.024;2023-07-28T02:45:39;18.15;;;7.28;;
58954;SDS011;45815;52.334;5.024;2023-07-28T02:48:04;20.42;;;7.82;;
58954;SDS011;45815;52.334;5.024;2023-07-28T02:50:30;24.48;;;7.50;;
58954;SDS011;45815;52.334;5.024;2023-07-28T02:52:56;17.38;;;8.05;;
58954;SDS011;45815;52.334;5.024;2023-07-28T02:55:21;20.92;;;7.57;;
58954;SDS011;45815;52.334;5.024;2023-07-28T02:57:47;20.23;;;7.53;;
58954;SDS011;45815;52.334;5.024;2023-07-28T03:00:12;21.77;;;6.95;;
58954;SDS011;45815;52.334;5.024;2023-07-28T03:02:39;16.98;;;6.97;;
58954;SDS011;45815;52.334;5.024;2023-07-28T03:05:04;16.77;;;6.82;;
58954;SDS011;45815;52.334;5.024;2023-07-28T03:08:03;18.27;;;6.95;;
58954;SDS011;45815;52.334;5.024;2023-07-28T03:10:29;19.63;;;7.63;;
58954;SDS011;45815;52.334;5.024;2023-07-28T03:12:54;20.38;;;7.30;;
58954;SDS011;45815;52.334;5.024;2023-07-28T03:15:20;18.50;;;6.82;;
58954;SDS011;45815;52.334;5.024;2023-07-28T03:17:50;19.42;;;7.15;;
58954;SDS011;45815;52.334;5.024;2023-07-28T03:20:16;13.25;;;6.90;;
58954;SDS011;45815;52.334;5.024;2023-07-28T03:22:41;20.63;;;6.97;;
58954;SDS011;45815;52.334;5.024;2023-07-28T03:25:07;21.20;;;7.28;;
58954;SDS011;45815;52.334;5.024;2023-07-28T03:27:33;19.15;;;7.55;;
58954;SDS011;45815;52.334;5.024;2023-07-28T03:29:59;17.42;;;7.32;;
58954;SDS011;45815;52.334;5.024;2023-07-28T03:32:25;21.63;;;8.02;;
58954;SDS011;45815;52.334;5.024;2023-07-28T03:34:50;16.77;;;7.00;;
58954;SDS011;45815;52.334;5.024;2023-07-28T03:37:18;19.75;;;7.78;;
58954;SDS011;45815;52.334;5.024;2023-07-28T03:39:44;14.88;;;7.20;;
58954;SDS011;45815;52.334;5.024;2023-07-28T03:42:10;18.13;;;8.13;;
58954;SDS011;45815;52.334;5.024;2023-07-28T03:44:35;20.05;;;8.52;;
58954;SDS011;45815;52.334;5.024;2023-07-28T03:47:03;21.55;;;8.02;;
58954;SDS011;45815;52.334;5.024;2023-07-28T03:49:29;23.10;;;8.05;;
58954;SDS011;45815;52.334;5.024;2023-07-28T03:51:54;15.15;;;7.57;;
58954;SDS011;45815;52.334;5.024;2023-07-28T03:54:20;22.15;;;8.55;;
58954;SDS011;45815;52.334;5.024;2023-07-28T03:56:45;24.48;;;8.80;;
58954;SDS011;45815;52.334;5.024;2023-07-28T03:59:11;20.75;;;7.93;;
58954;SDS011;45815;52.334;5.024;2023-07-28T04:01:36;22.17;;;8.27;;
58954;SDS011;45815;52.334;5.024;2023-07-28T04:04:01;21.35;;;8.18;;
58954;SDS011;45815;52.334;5.024;2023-07-28T04:06:39;21.35;;;8.60;;
58954;SDS011;45815;52.334;5.024;2023-07-28T04:09:05;21.15;;;8.13;;
58954;SDS011;45815;52.334;5.024;2023-07-28T04:11:32;23.00;;;8.65;;
58954;SDS011;45815;52.334;5.024;2023-07-28T04:13:57;19.33;;;7.68;;
58954;SDS011;45815;52.334;5.024;2023-07-28T04:16:23;17.58;;;7.55;;
58954;SDS011;45815;52.334;5.024;2023-07-28T04:18:49;21.35;;;8.75;;
58954;SDS011;45815;52.334;5.024;2023-07-28T04:21:14;20.60;;;9.40;;
58954;SDS011;45815;52.334;5.024;2023-07-28T04:23:39;23.25;;;7.80;;
58954;SDS011;45815;52.334;5.024;2023-07-28T04:26:06;21.38;;;9.25;;
58954;SDS011;45815;52.334;5.024;2023-07-28T04:28:31;23.85;;;8.93;;
58954;SDS011;45815;52.334;5.024;2023-07-28T04:30:58;18.05;;;7.45;;
58954;SDS011;45815;52.334;5.024;2023-07-28T04:33:46;17.08;;;7.65;;
58954;SDS011;45815;52.334;5.024;2023-07-28T04:36:11;19.58;;;8.10;;
58954;SDS011;45815;52.334;5.024;2023-07-28T04:38:37;18.98;;;7.88;;
58954;SDS011;45815;52.334;5.024;2023-07-28T04:41:03;17.88;;;7.88;;
58954;SDS011;45815;52.334;5.024;2023-07-28T04:43:49;18.95;;;8.18;;
58954;SDS011;45815;52.334;5.024;2023-07-28T04:46:15;16.15;;;7.57;;
58954;SDS011;45815;52.334;5.024;2023-07-28T04:48:42;15.82;;;8.05;;
58954;SDS011;45815;52.334;5.024;2023-07-28T04:51:28;15.77;;;7.97;;
58954;SDS011;45815;52.334;5.024;2023-07-28T04:54:27;24.10;;;9.18;;
58954;SDS011;45815;52.334;5.024;2023-07-28T04:56:53;19.02;;;9.35;;
58954;SDS011;45815;52.334;5.024;2023-07-28T04:59:24;22.85;;;8.43;;
58954;SDS011;45815;52.334;5.024;2023-07-28T05:01:49;21.67;;;8.90;;
58954;SDS011;45815;52.334;5.024;2023-07-28T05:04:14;21.40;;;8.77;;
58954;SDS011;45815;52.334;5.024;2023-07-28T05:06:40;23.23;;;8.25;;
58954;SDS011;45815;52.334;5.024;2023-07-28T05:09:05;22.00;;;8.88;;
58954;SDS011;45815;52.334;5.024;2023-07-28T05:11:33;22.77;;;9.35;;
58954;SDS011;45815;52.334;5.024;2023-07-28T05:13:59;24.38;;;9.95;;
58954;SDS011;45815;52.334;5.024;2023-07-28T05:16:24;25.17;;;9.45;;
58954;SDS011;45815;52.334;5.024;2023-07-28T05:19:03;23.17;;;9.77;;
58954;SDS011;45815;52.334;5.024;2023-07-28T05:21:44;24.15;;;9.55;;
58954;SDS011;45815;52.334;5.024;2023-07-28T05:24:12;23.52;;;10.05;;
58954;SDS011;45815;52.334;5.024;2023-07-28T05:26:37;23.52;;;10.35;;
58954;SDS011;45815;52.334;5.024;2023-07-28T05:29:03;25.92;;;10.25;;
58954;SDS011;45815;52.334;5.024;2023-07-28T05:31:28;22.77;;;10.40;;
58954;SDS011;45815;52.334;5.024;2023-07-28T05:33:54;22.13;;;9.90;;
58954;SDS011;45815;52.334;5.024;2023-07-28T05:36:20;26.50;;;9.93;;
58954;SDS011;45815;52.334;5.024;2023-07-28T05:38:46;23.42;;;9.68;;
58954;SDS011;45815;52.334;5.024;2023-07-28T05:41:12;23.90;;;10.18;;
58954;SDS011;45815;52.334;5.024;2023-07-28T05:43:37;20.48;;;10.15;;
58954;SDS011;45815;52.334;5.024;2023-07-28T05:46:03;26.75;;;10.30;;
58954;SDS011;45815;52.334;5.024;2023-07-28T05:48:32;49.53;;;25.58;;
58954;SDS011;45815;52.334;5.024;2023-07-28T05:50:57;34.42;;;15.60;;
58954;SDS011;45815;52.334;5.024;2023-07-28T05:53:23;24.65;;;11.95;;
58954;SDS011;45815;52.334;5.024;2023-07-28T05:55:52;101.95;;;77.68;;
58954;SDS011;45815;52.334;5.024;2023-07-28T05:58:18;75.38;;;38.78;;
58954;SDS011;45815;52.334;5.024;2023-07-28T06:00:44;34.80;;;18.58;;
58954;SDS011;45815;52.334;5.024;2023-07-28T06:03:21;45.22;;;23.42;;
58954;SDS011;45815;52.334;5.024;2023-07-28T06:05:56;62.42;;;34.33;;
58954;SDS011;45815;52.334;5.024;2023-07-28T06:08:22;25.17;;;11.52;;
58954;SDS011;45815;52.334;5.024;2023-07-28T06:10:48;24.55;;;10.35;;
58954;SDS011;45815;52.334;5.024;2023-07-28T06:13:13;23.13;;;10.35;;
58954;SDS011;45815;52.334;5.024;2023-07-28T06:15:39;21.30;;;9.82;;
58954;SDS011;45815;52.334;5.024;2023-07-28T06:18:05;21.55;;;10.57;;
58954;SDS011;45815;52.334;5.024;2023-07-28T06:20:31;23.45;;;10.38;;
58954;SDS011;45815;52.334;5.024;2023-07-28T06:22:57;20.40;;;10.80;;
58954;SDS011;45815;52.334;5.024;2023-07-28T06:25:22;21.73;;;10.85;;
58954;SDS011;45815;52.334;5.024;2023-07-28T06:27:48;21.92;;;9.95;;
58954;SDS011;45815;52.334;5.024;2023-07-28T06:30:13;24.83;;;10.32;;
58954;SDS011;45815;52.334;5.024;2023-07-28T06:32:39;21.98;;;9.75;;
58954;SDS011;45815;52.334;5.024;2023-07-28T06:35:05;19.52;;;10.48;;
58954;SDS011;45815;52.334;5.024;2023-07-28T06:37:32;20.13;;;10.38;;
58954;SDS011;45815;52.334;5.024;2023-07-28T06:39:59;20.95;;;10.35;;
58954;SDS011;45815;52.334;5.024;2023-07-28T06:42:24;24.52;;;11.15;;
58954;SDS011;45815;52.334;5.024;2023-07-28T06:44:55;24.80;;;11.57;;
58954;SDS011;45815;52.334;5.024;2023-07-28T06:47:21;23.25;;;10.32;;
58954;SDS011;45815;52.334;5.024;2023-07-28T06:49:47;25.20;;;11.48;;
58954;SDS011;45815;52.334;5.024;2023-07-28T06:52:13;21.27;;;10.52;;
58954;SDS011;45815;52.334;5.024;2023-07-28T06:54:39;24.23;;;10.95;;
58954;SDS011;45815;52.334;5.024;2023-07-28T06:57:06;19.85;;;10.50;;
58954;SDS011;45815;52.334;5.024;2023-07-28T06:59:32;22.58;;;11.82;;
58954;SDS011;45815;52.334;5.024;2023-07-28T07:01:57;24.42;;;11.00;;
58954;SDS011;45815;52.334;5.024;2023-07-28T07:04:23;19.05;;;10.23;;
58954;SDS011;45815;52.334;5.024;2023-07-28T07:06:49;21.23;;;9.93;;
58954;SDS011;45815;52.334;5.024;2023-07-28T07:09:14;18.85;;;9.63;;
58954;SDS011;45815;52.334;5.024;2023-07-28T07:11:40;21.20;;;11.20;;
58954;SDS011;45815;52.334;5.024;2023-07-28T07:14:06;18.63;;;10.25;;
58954;SDS011;45815;52.334;5.024;2023-07-28T07:16:31;19.33;;;9.73;;
58954;SDS011;45815;52.334;5.024;2023-07-28T07:18:57;19.40;;;9.90;;
58954;SDS011;45815;52.334;5.024;2023-07-28T07:21:23;18.05;;;9.60;;
58954;SDS011;45815;52.334;5.024;2023-07-28T07:23:49;19.25;;;9.60;;
58954;SDS011;45815;52.334;5.024;2023-07-28T07:26:26;20.83;;;9.45;;
58954;SDS011;45815;52.334;5.024;2023-07-28T07:28:52;19.90;;;8.95;;
58954;SDS011;45815;52.334;5.024;2023-07-28T07:31:18;16.83;;;9.35;;
58954;SDS011;45815;52.334;5.024;2023-07-28T07:33:44;14.75;;;7.65;;
58954;SDS011;45815;52.334;5.024;2023-07-28T07:36:13;15.18;;;7.82;;
58954;SDS011;45815;52.334;5.024;2023-07-28T07:38:39;17.77;;;8.68;;
58954;SDS011;45815;52.334;5.024;2023-07-28T07:41:06;20.20;;;8.98;;
58954;SDS011;45815;52.334;5.024;2023-07-28T07:43:32;18.30;;;9.35;;
58954;SDS011;45815;52.334;5.024;2023-07-28T07:45:57;16.63;;;9.15;;
58954;SDS011;45815;52.334;5.024;2023-07-28T07:48:22;16.75;;;9.13;;
58954;SDS011;45815;52.334;5.024;2023-07-28T07:50:48;15.70;;;8.63;;
58954;SDS011;45815;52.334;5.024;2023-07-28T07:53:13;17.27;;;8.82;;
58954;SDS011;45815;52.334;5.024;2023-07-28T07:55:39;13.73;;;8.82;;
58954;SDS011;45815;52.334;5.024;2023-07-28T07:58:04;16.35;;;7.70;;
58954;SDS011;45815;52.334;5.024;2023-07-28T08:00:30;15.93;;;7.43;;
58954;SDS011;45815;52.334;5.024;2023-07-28T08:02:55;11.85;;;6.45;;
58954;SDS011;45815;52.334;5.024;2023-07-28T08:05:21;12.80;;;6.85;;
58954;SDS011;45815;52.334;5.024;2023-07-28T08:07:46;9.93;;;6.32;;
58954;SDS011;45815;52.334;5.024;2023-07-28T08:10:12;13.10;;;6.50;;
58954;SDS011;45815;52.334;5.024;2023-07-28T08:12:38;10.57;;;6.40;;
58954;SDS011;45815;52.334;5.024;2023-07-28T08:15:03;12.13;;;6.72;;
58954;SDS011;45815;52.334;5.024;2023-07-28T08:17:29;10.35;;;6.25;;
58954;SDS011;45815;52.334;5.024;2023-07-28T08:19:54;14.10;;;7.00;;
58954;SDS011;45815;52.334;5.024;2023-07-28T08:22:20;13.77;;;7.05;;
58954;SDS011;45815;52.334;5.024;2023-07-28T08:24:45;14.52;;;8.38;;
58954;SDS011;45815;52.334;5.024;2023-07-28T08:27:11;13.05;;;7.43;;
58954;SDS011;45815;52.334;5.024;2023-07-28T08:29:36;11.38;;;6.90;;
58954;SDS011;45815;52.334;5.024;2023-07-28T08:32:02;11.27;;;6.43;;
58954;SDS011;45815;52.334;5.024;2023-07-28T08:34:27;11.18;;;6.40;;
58954;SDS011;45815;52.334;5.024;2023-07-28T08:36:53;11.52;;;6.75;;
58954;SDS011;45815;52.334;5.024;2023-07-28T08:39:18;10.68;;;5.80;;
58954;SDS011;45815;52.334;5.024;2023-07-28T08:41:43;12.10;;;6.63;;
58954;SDS011;45815;52.334;5.024;2023-07-28T08:44:09;13.85;;;6.65;;
58954;SDS011;45815;52.334;5.024;2023-07-28T08:46:34;10.30;;;5.68;;
58954;SDS011;45815;52.334;5.024;2023-07-28T08:49:00;10.98;;;5.45;;
58954;SDS011;45815;52.334;5.024;2023-07-28T08:51:26;12.90;;;5.07;;
58954;SDS011;45815;52.334;5.024;2023-07-28T08:53:52;10.27;;;5.80;;
58954;SDS011;45815;52.334;5.024;2023-07-28T08:56:17;9.27;;;4.90;;
58954;SDS011;45815;52.334;5.024;2023-07-28T08:58:44;14.43;;;8.10;;
58954;SDS011;45815;52.334;5.024;2023-07-28T09:01:10;18.55;;;9.38;;
58954;SDS011;45815;52.334;5.024;2023-07-28T09:03:38;8.85;;;5.15;;
58954;SDS011;45815;52.334;5.024;2023-07-28T09:06:06;10.73;;;4.78;;
58954;SDS011;45815;52.334;5.024;2023-07-28T09:08:34;9.35;;;4.45;;
58954;SDS011;45815;52.334;5.024;2023-07-28T09:11:01;7.63;;;3.80;;
58954;SDS011;45815;52.334;5.024;2023-07-28T09:13:35;10.50;;;4.80;;
58954;SDS011;45815;52.334;5.024;2023-07-28T09:16:01;10.07;;;4.10;;
58954;SDS011;45815;52.334;5.024;2023-07-28T09:18:27;10.43;;;4.70;;
58954;SDS011;45815;52.334;5.024;2023-07-28T09:20:53;7.85;;;3.90;;
58954;SDS011;45815;52.334;5.024;2023-07-28T09:23:18;8.95;;;4.60;;
58954;SDS011;45815;52.334;5.024;2023-07-28T09:25:53;8.85;;;4.82;;
58954;SDS011;45815;52.334;5.024;2023-07-28T09:28:35;8.68;;;4.70;;
58954;SDS011;45815;52.334;5.024;2023-07-28T09:31:02;11.25;;;4.70;;
58954;SDS011;45815;52.334;5.024;2023-07-28T09:33:30;9.13;;;4.80;;
58954;SDS011;45815;52.334;5.024;2023-07-28T09:35:56;9.00;;;4.80;;
58954;SDS011;45815;52.334;5.024;2023-07-28T09:38:22;8.45;;;5.10;;
58954;SDS011;45815;52.334;5.024;2023-07-28T09:40:52;11.52;;;4.93;;
58954;SDS011;45815;52.334;5.024;2023-07-28T09:43:19;8.68;;;4.55;;
58954;SDS011;45815;52.334;5.024;2023-07-28T09:45:44;11.20;;;4.80;;
58954;SDS011;45815;52.334;5.024;2023-07-28T09:48:11;8.18;;;4.72;;
58954;SDS011;45815;52.334;5.024;2023-07-28T09:50:39;9.57;;;4.72;;
58954;SDS011;45815;52.334;5.024;2023-07-28T09:53:07;7.03;;;3.97;;
58954;SDS011;45815;52.334;5.024;2023-07-28T09:55:34;9.50;;;4.15;;
58954;SDS011;45815;52.334;5.024;2023-07-28T09:58:04;14.30;;;7.15;;
58954;SDS011;45815;52.334;5.024;2023-07-28T10:00:33;10.55;;;5.10;;
58954;SDS011;45815;52.334;5.024;2023-07-28T10:03:00;10.18;;;4.43;;
58954;SDS011;45815;52.334;5.024;2023-07-28T10:05:28;10.35;;;4.30;;
58954;SDS011;45815;52.334;5.024;2023-07-28T10:07:54;7.38;;;3.92;;
58954;SDS011;45815;52.334;5.024;2023-07-28T10:10:20;7.93;;;3.78;;
58954;SDS011;45815;52.334;5.024;2023-07-28T10:12:46;7.72;;;3.83;;
58954;SDS011;45815;52.334;5.024;2023-07-28T10:15:18;9.63;;;4.28;;
58954;SDS011;45815;52.334;5.024;2023-07-28T10:17:46;7.88;;;3.80;;
58954;SDS011;45815;52.334;5.024;2023-07-28T10:20:35;7.00;;;3.75;;
58954;SDS011;45815;52.334;5.024;2023-07-28T10:25:32;7.70;;;3.80;;
58954;SDS011;45815;52.334;5.024;2023-07-28T10:27:59;8.75;;;3.88;;
58954;SDS011;45815;52.334;5.024;2023-07-28T10:30:24;6.68;;;4.15;;
58954;SDS011;45815;52.334;5.024;2023-07-28T10:32:50;7.90;;;3.88;;
58954;SDS011;45815;52.334;5.024;2023-07-28T10:37:46;7.25;;;4.47;;
58954;SDS011;45815;52.334;5.024;2023-07-28T10:40:22;7.82;;;4.65;;
58954;SDS011;45815;52.334;5.024;2023-07-28T10:42:55;10.57;;;5.07;;
58954;SDS011;45815;52.334;5.024;2023-07-28T10:45:24;8.70;;;3.95;;
58954;SDS011;45815;52.334;5.024;2023-07-28T10:47:55;9.57;;;4.47;;
58954;SDS011;45815;52.334;5.024;2023-07-28T10:50:26;7.82;;;4.43;;
58954;SDS011;45815;52.334;5.024;2023-07-28T10:52:52;9.82;;;4.43;;
58954;SDS011;45815;52.334;5.024;2023-07-28T10:55:18;10.43;;;4.53;;
58954;SDS011;45815;52.334;5.024;2023-07-28T10:57:45;9.55;;;4.60;;
58954;SDS011;45815;52.334;5.024;2023-07-28T11:00:15;7.55;;;3.85;;
58954;SDS011;45815;52.334;5.024;2023-07-28T11:02:42;7.28;;;4.15;;
58954;SDS011;45815;52.334;5.024;2023-07-28T11:05:13;9.57;;;3.85;;
58954;SDS011;45815;52.334;5.024;2023-07-28T11:07:44;7.90;;;4.43;;
58954;SDS011;45815;52.334;5.024;2023-07-28T11:10:10;7.68;;;4.05;;
58954;SDS011;45815;52.334;5.024;2023-07-28T11:12:40;11.10;;;4.95;;
58954;SDS011;45815;52.334;5.024;2023-07-28T11:15:11;10.93;;;6.82;;
58954;SDS011;45815;52.334;5.024;2023-07-28T11:17:41;9.57;;;4.85;;
58954;SDS011;45815;52.334;5.024;2023-07-28T11:22:42;9.93;;;5.30;;
58954;SDS011;45815;52.334;5.024;2023-07-28T11:25:11;7.63;;;4.22;;
58954;SDS011;45815;52.334;5.024;2023-07-28T11:27:37;8.75;;;4.72;;
58954;SDS011;45815;52.334;5.024;2023-07-28T11:30:04;7.72;;;4.45;;
58954;SDS011;45815;52.334;5.024;2023-07-28T11:32:34;7.60;;;4.35;;
58954;SDS011;45815;52.334;5.024;2023-07-28T11:35:06;8.18;;;4.30;;
58954;SDS011;45815;52.334;5.024;2023-07-28T11:37:37;7.65;;;3.83;;
58954;SDS011;45815;52.334;5.024;2023-07-28T11:40:04;7.28;;;3.72;;
58954;SDS011;45815;52.334;5.024;2023-07-28T11:42:46;9.52;;;5.07;;
58954;SDS011;45815;52.334;5.024;2023-07-28T11:45:14;9.15;;;4.28;;
58954;SDS011;45815;52.334;5.024;2023-07-28T11:50:22;7.25;;;4.00;;
58954;SDS011;45815;52.334;5.024;2023-07-28T11:52:49;8.98;;;4.88;;
58954;SDS011;45815;52.334;5.024;2023-07-28T11:55:14;9.30;;;4.18;;
58954;SDS011;45815;52.334;5.024;2023-07-28T11:57:42;8.52;;;4.45;;
58954;SDS011;45815;52.334;5.024;2023-07-28T12:00:08;9.52;;;4.55;;
58954;SDS011;45815;52.334;5.024;2023-07-28T12:02:34;6.28;;;3.33;;
58954;SDS011;45815;52.334;5.024;2023-07-28T12:05:00;16.38;;;4.93;;
58954;SDS011;45815;52.334;5.024;2023-07-28T12:07:29;6.05;;;3.60;;
58954;SDS011;45815;52.334;5.024;2023-07-28T12:09:56;8.50;;;3.80;;
58954;SDS011;45815;52.334;5.024;2023-07-28T12:12:28;8.20;;;4.63;;
58954;SDS011;45815;52.334;5.024;2023-07-28T12:14:56;10.95;;;5.65;;
58954;SDS011;45815;52.334;5.024;2023-07-28T12:17:29;8.40;;;4.00;;
58954;SDS011;45815;52.334;5.024;2023-07-28T12:19:59;7.05;;;3.55;;
58954;SDS011;45815;52.334;5.024;2023-07-28T12:24:52;7.95;;;3.97;;
58954;SDS011;45815;52.334;5.024;2023-07-28T12:27:18;6.95;;;3.45;;
58954;SDS011;45815;52.334;5.024;2023-07-28T12:29:48;11.55;;;4.00;;
58954;SDS011;45815;52.334;5.024;2023-07-28T12:32:14;6.38;;;3.58;;
58954;SDS011;45815;52.334;5.024;2023-07-28T12:34:39;6.70;;;3.40;;
58954;SDS011;45815;52.334;5.024;2023-07-28T12:37:06;9.23;;;3.63;;
58954;SDS011;45815;52.334;5.024;2023-07-28T12:39:31;7.82;;;3.30;;
58954;SDS011;45815;52.334;5.024;2023-07-28T12:41:58;8.38;;;3.90;;
58954;SDS011;45815;52.334;5.024;2023-07-28T12:44:23;7.72;;;3.35;;
58954;SDS011;45815;52.334;5.024;2023-07-28T12:46:49;6.75;;;3.20;;
58954;SDS011;45815;52.334;5.024;2023-07-28T12:49:14;8.90;;;4.97;;
58954;SDS011;45815;52.334;5.024;2023-07-28T12:51:40;11.70;;;8.05;;
58954;SDS011;45815;52.334;5.024;2023-07-28T12:54:05;6.38;;;2.95;;
58954;SDS011;45815;52.334;5.024;2023-07-28T12:56:32;7.65;;;3.75;;
58954;SDS011;45815;52.334;5.024;2023-07-28T12:58:57;7.20;;;3.38;;
58954;SDS011;45815;52.334;5.024;2023-07-28T13:01:23;8.00;;;3.30;;
58954;SDS011;45815;52.334;5.024;2023-07-28T13:03:48;5.63;;;2.75;;
58954;SDS011;45815;52.334;5.024;2023-07-28T13:06:14;6.63;;;3.15;;
58954;SDS011;45815;52.334;5.024;2023-07-28T13:08:39;8.93;;;3.55;;
58954;SDS011;45815;52.334;5.024;2023-07-28T13:11:05;6.97;;;3.42;;
58954;SDS011;45815;52.334;5.024;2023-07-28T13:13:30;7.13;;;2.97;;
58954;SDS011;45815;52.334;5.024;2023-07-28T13:15:56;8.05;;;3.08;;
58954;SDS011;45815;52.334;5.024;2023-07-28T13:18:23;6.18;;;3.15;;
58954;SDS011;45815;52.334;5.024;2023-07-28T13:20:49;5.55;;;2.83;;
58954;SDS011;45815;52.334;5.024;2023-07-28T13:23:14;7.90;;;3.10;;
58954;SDS011;45815;52.334;5.024;2023-07-28T13:25:40;8.25;;;3.25;;
58954;SDS011;45815;52.334;5.024;2023-07-28T13:28:05;7.32;;;3.13;;
58954;SDS011;45815;52.334;5.024;2023-07-28T13:30:31;9.43;;;2.95;;
58954;SDS011;45815;52.334;5.024;2023-07-28T13:32:56;5.75;;;2.95;;
58954;SDS011;45815;52.334;5.024;2023-07-28T13:35:22;6.65;;;3.20;;
58954;SDS011;45815;52.334;5.024;2023-07-28T13:37:47;6.65;;;3.10;;
58954;SDS011;45815;52.334;5.024;2023-07-28T13:40:13;7.32;;;3.13;;
58954;SDS011;45815;52.334;5.024;2023-07-28T13:42:38;8.10;;;4.35;;
58954;SDS011;45815;52.334;5.024;2023-07-28T13:45:04;7.68;;;3.60;;
58954;SDS011;45815;52.334;5.024;2023-07-28T13:47:30;10.27;;;3.47;;
58954;SDS011;45815;52.334;5.024;2023-07-28T13:49:55;7.28;;;3.50;;
58954;SDS011;45815;52.334;5.024;2023-07-28T13:52:21;6.38;;;2.50;;
58954;SDS011;45815;52.334;5.024;2023-07-28T13:54:46;11.00;;;3.83;;
58954;SDS011;45815;52.334;5.024;2023-07-28T13:57:12;10.73;;;5.57;;
58954;SDS011;45815;52.334;5.024;2023-07-28T13:59:39;10.02;;;5.70;;
58954;SDS011;45815;52.334;5.024;2023-07-28T14:02:05;6.75;;;3.33;;
58954;SDS011;45815;52.334;5.024;2023-07-28T14:04:30;7.65;;;3.05;;
58954;SDS011;45815;52.334;5.024;2023-07-28T14:06:56;6.72;;;3.53;;
58954;SDS011;45815;52.334;5.024;2023-07-28T14:09:21;8.27;;;3.10;;
58954;SDS011;45815;52.334;5.024;2023-07-28T14:11:47;6.90;;;3.28;;
58954;SDS011;45815;52.334;5.024;2023-07-28T14:14:12;8.63;;;3.13;;
58954;SDS011;45815;52.334;5.024;2023-07-28T14:16:38;8.07;;;3.35;;
58954;SDS011;45815;52.334;5.024;2023-07-28T14:19:03;7.35;;;3.15;;
58954;SDS011;45815;52.334;5.024;2023-07-28T14:21:29;6.88;;;2.85;;
58954;SDS011;45815;52.334;5.024;2023-07-28T14:23:54;7.70;;;3.50;;
58954;SDS011;45815;52.334;5.024;2023-07-28T14:26:19;6.80;;;3.00;;
58954;SDS011;45815;52.334;5.024;2023-07-28T14:28:45;6.43;;;2.92;;
58954;SDS011;45815;52.334;5.024;2023-07-28T14:31:10;7.13;;;2.67;;
58954;SDS011;45815;52.334;5.024;2023-07-28T14:33:36;7.22;;;2.60;;
58954;SDS011;45815;52.334;5.024;2023-07-28T14:36:02;5.75;;;3.95;;
58954;SDS011;45815;52.334;5.024;2023-07-28T14:38:27;5.72;;;2.88;;
58954;SDS011;45815;52.334;5.024;2023-07-28T14:40:52;5.88;;;2.72;;
58954;SDS011;45815;52.334;5.024;2023-07-28T14:43:18;6.32;;;2.83;;
58954;SDS011;45815;52.334;5.024;2023-07-28T14:45:44;9.18;;;3.38;;
58954;SDS011;45815;52.334;5.024;2023-07-28T14:48:10;6.95;;;2.67;;
58954;SDS011;45815;52.334;5.024;2023-07-28T14:50:35;6.32;;;2.72;;
58954;SDS011;45815;52.334;5.024;2023-07-28T14:53:01;7.93;;;3.70;;